Time;durP1;ratioP1;P1;durP2;ratioP2;P2;SDS_P1;SDS_P2;PMS_P1;PMS_P2;Temp;Humidity;BMP_temperature;BMP_pressure;BME280_temperature;BME280_humidity;BME280_pressure;Samples;Min_cycle;Max_cycle;Signal;HPM_P1;HPM_P2
2022/04/01 00:00:21;;;;;;;;;73.60;59.40;26.40;99.90;;;;;;5041077;28;8742;-65
2022/04/01 00:02:48;;;;;;;;;71.00;59.00;26.40;99.90;;;;;;5040320;28;8751;-66
2022/04/01 00:05:15;;;;;;;;;74.00;63.20;26.30;99.90;;;;;;5038973;28;8757;-66
2022/04/01 00:07:42;;;;;;;;;75.40;67.20;26.30;99.90;;;;;;5020773;28;8763;-66
2022/04/01 00:10:09;;;;;;;;;73.20;59.60;26.30;99.90;;;;;;5021987;28;8755;-66
2022/04/01 00:12:43;;;;;;;;;72.80;64.40;26.40;99.90;;;;;;5020913;28;8759;-66
2022/04/01 00:15:12;;;;;;;;;70.60;57.80;26.40;99.90;;;;;;5020740;28;8860;-66
2022/04/01 00:17:41;;;;;;;;;74.00;61.40;26.50;99.90;;;;;;5020705;28;9123;-66
2022/04/01 00:20:18;;;;;;;;;71.00;59.00;26.50;99.90;;;;;;5038268;28;8792;-66
2022/04/01 00:22:45;;;;;;;;;72.40;63.60;26.50;99.90;;;;;;5038427;28;8800;-66
2022/04/01 00:25:12;;;;;;;;;67.40;54.40;26.60;99.90;;;;;;5054407;28;8737;-66
2022/04/01 00:27:39;;;;;;;;;72.00;59.80;26.60;99.90;;;;;;5038215;28;8757;-66
2022/04/01 00:30:07;;;;;;;;;69.80;56.00;26.70;99.90;;;;;;5037067;28;8741;-66
2022/04/01 00:32:33;;;;;;;;;66.20;52.60;26.70;99.90;;;;;;5038009;28;8749;-66
2022/04/01 00:35:00;;;;;;;;;59.50;47.00;26.60;99.90;;;;;;5057054;28;8759;-66
2022/04/01 00:37:27;;;;;;;;;65.25;52.25;26.60;99.90;;;;;;5023303;28;8719;-65
2022/04/01 00:39:53;;;;;;;;;61.75;50.75;26.60;99.90;;;;;;5058317;28;8759;-66
2022/04/01 00:42:20;;;;;;;;;59.20;47.00;26.60;99.90;;;;;;5057447;28;8743;-65
2022/04/01 00:44:46;;;;;;;;;58.00;48.40;26.60;99.90;;;;;;5057749;28;8739;-66
2022/04/01 00:47:14;;;;;;;;;55.60;46.00;26.70;99.90;;;;;;5057446;28;8739;-66
2022/04/01 00:49:42;;;;;;;;;61.40;49.20;26.90;99.90;;;;;;5022687;28;8749;-66
2022/04/01 00:52:10;;;;;;;;;62.00;50.60;27.00;99.90;;;;;;5021010;28;8713;-66
2022/04/01 00:54:37;;;;;;;;;66.60;53.20;26.90;99.90;;;;;;5019534;28;9093;-66
2022/04/01 00:57:05;;;;;;;;;61.80;50.00;26.70;99.90;;;;;;5037538;28;8725;-66
2022/04/01 00:59:32;;;;;;;;;60.00;48.80;26.70;99.90;;;;;;5036251;28;8780;-66
2022/04/01 01:02:00;;;;;;;;;58.25;47.75;26.80;99.90;;;;;;5020150;28;8769;-66
2022/04/01 01:04:29;;;;;;;;;61.80;51.00;26.80;99.90;;;;;;5051363;28;9443;-65
2022/04/01 01:06:57;;;;;;;;;61.75;51.75;26.80;99.90;;;;;;5040564;28;8770;-66
2022/04/01 01:09:25;;;;;;;;;63.20;49.60;26.80;99.90;;;;;;5039335;28;8755;-66
2022/04/01 01:11:52;;;;;;;;;58.20;48.60;26.80;99.90;;;;;;5039631;28;8775;-66
2022/04/01 01:14:31;;;;;;;;;64.40;50.80;26.90;99.90;;;;;;5061917;28;8867;-66
2022/04/01 01:16:58;;;;;;;;;65.00;52.00;26.90;99.90;;;;;;5056600;28;8783;-66
2022/04/01 01:19:25;;;;;;;;;62.80;50.80;26.80;99.90;;;;;;5042234;28;8761;-66
2022/04/01 01:21:53;;;;;;;;;62.25;49.25;26.90;99.90;;;;;;5020530;28;8769;-66
2022/04/01 01:24:36;;;;;;;;;69.00;54.00;26.90;99.90;;;;;;5019274;28;9560;-65
2022/04/01 01:27:07;;;;;;;;;63.20;48.80;27.00;99.90;;;;;;5037175;28;8731;-67
2022/04/01 01:29:37;;;;;;;;;63.00;51.00;27.00;99.90;;;;;;5036931;28;8756;-66
2022/04/01 01:32:05;;;;;;;;;63.60;51.40;27.00;99.90;;;;;;5020458;28;8749;-66
2022/04/01 01:34:35;;;;;;;;;62.20;49.00;27.20;99.90;;;;;;5051839;28;8869;-66
2022/04/01 01:37:02;;;;;;;;;60.60;50.20;27.20;99.90;;;;;;5057794;28;8779;-66
2022/04/01 01:39:29;;;;;;;;;67.60;53.80;27.20;99.90;;;;;;5056745;28;8763;-65
2022/04/01 01:41:59;;;;;;;;;60.60;49.20;27.20;99.90;;;;;;5056703;28;8825;-66
2022/04/01 01:44:26;;;;;;;;;62.20;50.60;27.10;99.90;;;;;;5038999;28;9454;-66
2022/04/01 01:46:52;;;;;;;;;62.00;49.20;27.20;99.90;;;;;;5039355;28;8779;-66
2022/04/01 01:49:22;;;;;;;;;61.80;49.80;27.30;99.90;;;;;;5043210;28;8734;-65
2022/04/01 01:54:44;;;;;;;;;61.60;48.80;27.40;99.90;;;;;;5036527;28;8792;-67
2022/04/01 01:57:16;;;;;;;;;63.20;50.60;27.50;99.90;;;;;;5020703;28;8725;-66
2022/04/01 01:59:43;;;;;;;;;61.40;50.60;27.60;99.90;;;;;;5036978;28;8729;-66
2022/04/01 02:02:10;;;;;;;;;57.50;47.25;27.60;99.90;;;;;;5036955;28;8721;-67
2022/04/01 02:04:39;;;;;;;;;62.25;51.00;27.60;99.90;;;;;;5052220;28;8739;-66
2022/04/01 02:07:05;;;;;;;;;60.80;49.80;27.50;99.90;;;;;;5039977;28;8711;-66
2022/04/01 02:09:32;;;;;;;;;60.50;47.00;27.50;99.90;;;;;;5057111;28;8758;-66
2022/04/01 02:11:59;;;;;;;;;63.00;51.20;27.50;99.90;;;;;;5042804;28;8774;-66
2022/04/01 02:14:26;;;;;;;;;60.00;47.60;27.60;99.90;;;;;;5060187;28;8759;-65
2022/04/01 02:16:53;;;;;;;;;58.80;45.40;27.60;99.90;;;;;;5060609;28;8828;-66
2022/04/01 02:19:23;;;;;;;;;61.20;49.20;27.70;99.90;;;;;;5046766;28;8793;-66
2022/04/01 02:21:53;;;;;;;;;61.80;50.20;27.60;99.90;;;;;;5040478;28;8749;-66
2022/04/01 02:24:24;;;;;;;;;61.50;49.00;27.60;99.90;;;;;;5022560;28;8769;-66
2022/04/01 02:26:51;;;;;;;;;62.40;49.60;27.70;99.90;;;;;;5022897;28;8764;-65
2022/04/01 02:29:19;;;;;;;;;63.40;51.60;27.80;99.90;;;;;;5040274;28;8773;-65
2022/04/01 02:31:47;;;;;;;;;61.60;48.60;27.90;99.90;;;;;;5022559;28;9561;-60
2022/04/01 02:34:13;;;;;;;;;64.20;50.00;28.00;99.90;;;;;;5036115;28;8763;-66
2022/04/01 02:36:40;;;;;;;;;65.60;53.00;28.10;99.90;;;;;;5041981;28;8785;-66
2022/04/01 02:39:07;;;;;;;;;60.40;49.40;28.00;99.90;;;;;;5042314;28;8751;-66
2022/04/01 02:41:34;;;;;;;;;61.40;49.40;28.00;99.90;;;;;;5059468;28;8782;-66
2022/04/01 02:44:12;;;;;;;;;59.80;48.00;28.10;99.90;;;;;;5059760;28;9407;-66
2022/04/01 02:46:41;;;;;;;;;55.80;46.40;28.20;99.90;;;;;;5059430;28;8867;-66
2022/04/01 02:49:08;;;;;;;;;60.20;49.00;28.20;99.90;;;;;;5022927;28;8808;-66
2022/04/01 02:51:39;;;;;;;;;64.60;51.40;28.30;99.90;;;;;;5039596;28;8780;-66
2022/04/01 02:54:06;;;;;;;;;63.60;49.80;28.30;99.90;;;;;;5039669;28;8773;-66
2022/04/01 02:56:34;;;;;;;;;60.20;47.20;28.30;99.90;;;;;;5039262;28;8765;-65
2022/04/01 02:59:01;;;;;;;;;60.60;49.40;28.30;99.90;;;;;;5022175;28;8749;-66
2022/04/01 03:01:29;;;;;;;;;62.20;50.20;28.40;99.90;;;;;;5039390;28;8737;-65
2022/04/01 03:03:56;;;;;;;;;59.00;49.00;28.40;99.90;;;;;;5049805;28;8731;-66
2022/04/01 03:06:22;;;;;;;;;57.20;46.00;28.60;99.90;;;;;;5059113;28;8859;-66
2022/04/01 03:08:49;;;;;;;;;60.20;49.00;28.60;99.90;;;;;;5041908;28;8746;-66
2022/04/01 03:11:17;;;;;;;;;61.60;50.40;28.80;99.90;;;;;;5059213;28;8763;-66
2022/04/01 03:13:43;;;;;;;;;61.00;49.40;28.80;99.90;;;;;;5074683;28;9399;-66
2022/04/01 03:16:12;;;;;;;;;64.80;51.40;28.90;99.90;;;;;;5059538;28;8757;-66
2022/04/01 03:18:42;;;;;;;;;54.20;45.20;28.90;99.90;;;;;;5066653;28;8773;-66
2022/04/01 03:21:11;;;;;;;;;57.80;47.40;29.00;99.90;;;;;;5038340;28;8771;-66
2022/04/01 03:23:43;;;;;;;;;56.20;47.00;29.10;99.90;;;;;;5021873;28;8879;-65
2022/04/01 03:26:10;;;;;;;;;59.80;48.40;29.00;99.90;;;;;;5038179;28;8749;-66
2022/04/01 03:28:37;;;;;;;;;61.50;49.50;29.00;99.90;;;;;;5038758;28;8748;-66
2022/04/01 03:31:03;;;;;;;;;59.75;49.00;29.10;99.90;;;;;;5039656;28;8763;-66
2022/04/01 03:33:32;;;;;;;;;60.40;49.60;29.20;99.90;;;;;;5044978;28;8751;-66
2022/04/01 03:36:01;;;;;;;;;58.20;45.60;29.20;99.90;;;;;;5058763;28;8798;-66
2022/04/01 03:38:28;;;;;;;;;59.80;48.20;29.40;99.90;;;;;;5058642;28;8742;-66
2022/04/01 03:40:54;;;;;;;;;58.60;48.00;29.50;99.90;;;;;;5058650;28;8786;-66
2022/04/01 03:43:23;;;;;;;;;54.00;45.40;29.40;99.90;;;;;;5059443;28;8857;-65
2022/04/01 03:45:50;;;;;;;;;55.60;46.40;29.50;99.90;;;;;;5058779;28;8731;-66
2022/04/01 03:48:35;;;;;;;;;63.80;50.00;29.40;99.90;;;;;;5045223;28;9536;-63
2022/04/01 03:51:04;;;;;;;;;58.25;47.50;29.50;99.90;;;;;;5021095;28;9105;-67
2022/04/01 03:53:32;;;;;;;;;60.00;49.00;29.60;99.90;;;;;;5038286;28;8761;-66
2022/04/01 03:56:00;;;;;;;;;56.20;46.00;29.50;99.90;;;;;;5053824;28;9308;-66
2022/04/01 03:58:32;;;;;;;;;61.20;49.40;29.50;99.90;;;;;;5038149;28;8729;-66
2022/04/01 04:01:00;;;;;;;;;58.25;47.50;29.70;99.90;;;;;;5039018;28;8741;-66
2022/04/01 04:03:27;;;;;;;;;58.25;45.75;29.80;99.90;;;;;;5044191;28;8735;-66
2022/04/01 04:05:54;;;;;;;;;56.75;44.50;29.90;99.90;;;;;;5058625;28;8762;-66
2022/04/01 04:08:22;;;;;;;;;58.00;46.75;30.00;99.90;;;;;;5057709;28;8755;-66
2022/04/01 04:10:52;;;;;;;;;58.00;46.25;30.00;99.90;;;;;;5058261;28;8747;-66
2022/04/01 04:13:21;;;;;;;;;60.50;47.50;29.90;99.90;;;;;;5058683;28;8743;-65
2022/04/01 04:16:08;;;;;;;;;56.75;47.75;29.90;99.90;;;;;;5058292;28;8727;-66
2022/04/01 04:18:50;;;;;;;;;54.25;44.75;30.00;99.90;;;;;;5050888;28;8871;-66
2022/04/01 04:21:29;;;;;;;;;52.75;42.75;30.10;99.90;;;;;;5038330;28;8763;-65
2022/04/01 04:24:03;;;;;;;;;55.75;46.25;30.20;99.90;;;;;;5019967;28;8753;-66
2022/04/01 04:26:41;;;;;;;;;55.50;45.50;30.10;99.90;;;;;;5037746;28;8752;-66
2022/04/01 04:29:12;;;;;;;;;58.25;46.00;30.10;99.90;;;;;;5037781;28;8772;-66
2022/04/01 04:31:42;;;;;;;;;54.00;43.75;30.10;99.90;;;;;;5037560;28;9118;-66
2022/04/01 04:34:10;;;;;;;;;60.75;47.50;30.10;99.90;;;;;;5032895;28;8747;-66
2022/04/01 04:36:39;;;;;;;;;53.40;43.60;30.10;99.90;;;;;;5057491;28;8763;-66
2022/04/01 04:39:30;;;;;;;;;54.75;45.00;30.20;99.90;;;;;;5057972;28;9516;-66
2022/04/01 04:41:57;;;;;;;;;46.00;35.25;30.20;99.90;;;;;;5058038;28;9435;-66
2022/04/01 04:44:25;;;;;;;;;55.25;45.50;30.40;99.90;;;;;;5057425;28;8750;-66
2022/04/01 04:46:52;;;;;;;;;54.25;44.50;30.50;99.90;;;;;;5073021;28;8762;-66
2022/04/01 04:49:18;;;;;;;;;57.00;43.25;30.50;99.90;;;;;;5036583;28;8786;-66
2022/04/01 04:51:48;;;;;;;;;53.20;43.40;30.70;99.90;;;;;;5036314;28;8763;-66
2022/04/01 04:54:15;;;;;;;;;57.20;46.00;30.90;99.90;;;;;;5037182;28;8787;-67
2022/04/01 04:56:43;;;;;;;;;53.75;44.75;30.80;99.90;;;;;;5052547;28;8753;-66
2022/04/01 04:59:10;;;;;;;;;58.60;47.60;30.80;99.90;;;;;;5037358;28;8843;-66
2022/04/01 05:01:39;;;;;;;;;53.25;43.25;30.70;99.90;;;;;;5052588;28;9464;-66
2022/04/01 05:04:39;;;;;;;;;55.50;45.25;30.60;99.90;;;;;;5064642;28;8747;-66
2022/04/01 05:07:17;;;;;;;;;55.25;44.00;30.70;99.90;;;;;;5057999;28;8787;-66
2022/04/01 05:10:00;;;;;;;;;57.75;46.00;30.90;99.90;;;;;;5057378;28;8832;-66
2022/04/01 05:12:58;;;;;;;;;50.75;42.75;31.00;99.90;;;;;;5057130;28;8820;-66
2022/04/01 05:15:31;;;;;;;;;54.50;43.25;30.90;99.90;;;;;;5057125;28;8836;-66
2022/04/01 05:18:14;;;;;;;;;56.75;46.00;31.00;99.90;;;;;;5037386;28;8743;-66
2022/04/01 05:21:01;;;;;;;;;54.40;43.60;31.00;99.90;;;;;;5019322;28;8879;-66
2022/04/01 05:23:40;;;;;;;;;54.50;44.25;31.00;99.90;;;;;;5037187;28;8764;-66
2022/04/01 05:26:16;;;;;;;;;59.75;46.50;31.30;99.90;;;;;;5019657;28;8799;-66
2022/04/01 05:28:50;;;;;;;;;56.25;45.50;31.20;99.60;;;;;;5019230;28;8753;-66
2022/04/01 05:31:25;;;;;;;;;56.40;46.80;31.20;99.60;;;;;;5020809;28;8756;-65
2022/04/01 05:34:04;;;;;;;;;50.75;42.75;31.20;99.90;;;;;;5029180;28;8785;-67
2022/04/01 05:36:31;;;;;;;;;52.25;41.75;31.10;99.90;;;;;;5056690;28;8774;-66
2022/04/01 05:38:57;;;;;;;;;58.00;46.50;31.40;99.90;;;;;;5056618;28;8751;-67
2022/04/01 05:41:24;;;;;;;;;55.00;46.00;31.40;99.90;;;;;;5056111;28;8778;-66
2022/04/01 05:43:51;;;;;;;;;59.00;48.40;31.40;99.90;;;;;;5071902;28;8754;-66
2022/04/01 05:46:20;;;;;;;;;57.25;45.25;31.20;99.70;;;;;;5056732;28;8740;-66
2022/04/01 05:48:47;;;;;;;;;58.75;47.25;31.10;99.90;;;;;;5047713;28;8753;-66
2022/04/01 05:51:14;;;;;;;;;57.00;45.60;31.00;99.90;;;;;;5036719;28;8862;-66
2022/04/01 05:53:44;;;;;;;;;54.80;45.20;31.30;99.90;;;;;;5035144;28;8866;-66
2022/04/01 05:56:11;;;;;;;;;56.20;46.60;31.40;99.90;;;;;;5019599;28;8765;-66
2022/04/01 05:58:39;;;;;;;;;51.75;42.75;31.40;99.90;;;;;;5018749;28;8768;-66
2022/04/01 06:01:25;;;;;;;;;54.80;45.40;31.40;98.90;;;;;;5052529;28;8722;-66
2022/04/01 06:04:14;;;;;;;;;53.40;44.40;31.40;98.40;;;;;;5043265;28;8829;-66
2022/04/01 06:06:42;;;;;;;;;59.40;46.60;31.10;99.20;;;;;;5055956;28;8762;-66
2022/04/01 06:09:36;;;;;;;;;55.20;44.60;31.20;99.60;;;;;;5056495;28;8758;-66
2022/04/01 06:12:29;;;;;;;;;56.20;46.60;31.30;99.10;;;;;;5038849;28;8750;-66
2022/04/01 06:15:02;;;;;;;;;55.40;44.20;31.50;99.10;;;;;;5056275;28;9496;-66
2022/04/01 06:18:04;;;;;;;;;57.40;46.60;31.50;98.70;;;;;;5056620;28;8839;-66
2022/04/01 06:20:32;;;;;;;;;43.80;36.20;31.50;99.00;;;;;;5033561;28;8778;-66
2022/04/01 06:23:04;;;;;;;;;54.50;44.00;31.60;98.10;;;;;;5051627;28;8781;-66
2022/04/01 06:25:32;;;;;;;;;56.25;46.00;31.80;98.20;;;;;;5034630;28;9596;-66
2022/04/01 06:28:26;;;;;;;;;55.75;45.50;31.80;97.20;;;;;;5036686;28;8873;-66
2022/04/01 06:30:55;;;;;;;;;53.80;41.60;31.80;97.80;;;;;;5051890;28;8778;-67
2022/04/01 06:33:33;;;;;;;;;56.50;43.50;31.80;97.40;;;;;;5023339;28;8809;-65
2022/04/01 06:36:05;;;;;;;;;51.50;43.50;31.70;97.40;;;;;;5056477;28;8774;-67
2022/04/01 06:38:53;;;;;;;;;53.75;44.00;31.70;97.30;;;;;;5056038;28;8743;-66
2022/04/01 06:41:25;;;;;;;;;53.25;44.00;31.60;98.60;;;;;;5056097;28;8801;-65
2022/04/01 06:43:52;;;;;;;;;49.25;41.25;31.70;98.10;;;;;;5038911;28;8770;-66
2022/04/01 06:46:18;;;;;;;;;49.75;40.25;31.90;97.00;;;;;;5038464;28;8747;-65
2022/04/01 06:48:45;;;;;;;;;52.50;42.75;32.00;96.40;;;;;;5062959;28;8785;-66
2022/04/01 06:51:13;;;;;;;;;48.00;39.75;32.10;97.00;;;;;;5035579;28;8772;-66
2022/04/01 06:53:41;;;;;;;;;60.20;46.20;32.20;96.30;;;;;;5018417;28;8787;-66
2022/04/01 06:56:11;;;;;;;;;53.00;43.20;32.20;96.40;;;;;;5020365;28;8757;-66
2022/04/01 06:58:38;;;;;;;;;51.75;43.00;32.30;95.10;;;;;;5039198;28;8749;-66
2022/04/01 07:01:05;;;;;;;;;50.50;40.50;32.40;96.30;;;;;;5022405;28;8745;-66
2022/04/01 07:03:33;;;;;;;;;51.25;42.75;32.20;95.40;;;;;;5045516;28;8793;-66
2022/04/01 07:05:59;;;;;;;;;49.75;42.25;32.00;95.70;;;;;;5059297;28;8762;-67
2022/04/01 07:08:26;;;;;;;;;46.80;39.20;31.90;96.50;;;;;;5059283;28;8755;-66
2022/04/01 07:10:53;;;;;;;;;51.25;40.75;32.00;96.00;;;;;;5059416;28;8801;-66
2022/04/01 07:13:19;;;;;;;;;56.50;44.25;31.80;96.70;;;;;;5059742;28;8745;-66
2022/04/01 07:15:47;;;;;;;;;52.25;43.75;31.70;96.80;;;;;;5059474;28;8839;-66
2022/04/01 07:18:15;;;;;;;;;52.25;41.75;31.70;97.20;;;;;;5054885;28;8765;-66
2022/04/01 07:20:41;;;;;;;;;46.50;39.25;31.70;97.00;;;;;;5038840;28;8757;-66
2022/04/01 07:23:08;;;;;;;;;53.75;44.00;31.50;97.40;;;;;;5039269;28;8807;-66
2022/04/01 07:25:35;;;;;;;;;55.00;43.75;31.50;97.30;;;;;;5004869;28;8776;-66
2022/04/01 07:28:01;;;;;;;;;51.25;40.25;31.60;97.40;;;;;;5039807;28;8721;-66
2022/04/01 07:30:28;;;;;;;;;49.75;40.75;31.60;98.10;;;;;;5038769;28;8773;-65
2022/04/01 07:32:57;;;;;;;;;50.50;41.00;31.60;97.90;;;;;;5040424;28;8753;-66
2022/04/01 07:35:24;;;;;;;;;44.33;37.33;31.30;97.90;;;;;;5058730;28;8821;-65
2022/04/01 07:37:51;;;;;;;;;49.25;39.75;31.10;98.10;;;;;;5059176;28;8847;-66
2022/04/01 07:40:18;;;;;;;;;48.50;39.75;31.00;98.40;;;;;;5058804;28;9415;-65
2022/04/01 07:42:45;;;;;;;;;49.50;39.50;30.90;98.30;;;;;;5058698;28;8754;-66
2022/04/01 07:45:12;;;;;;;;;46.00;37.00;31.00;98.10;;;;;;5059047;28;9114;-66
2022/04/01 07:47:38;;;;;;;;;47.25;38.50;30.90;98.30;;;;;;5040611;28;8755;-66
2022/04/01 07:50:05;;;;;;;;;50.00;40.00;30.90;98.40;;;;;;5039171;28;8792;-66
2022/04/01 07:52:33;;;;;;;;;49.75;39.00;30.90;98.70;;;;;;5020593;28;9389;-66
2022/04/01 07:55:00;;;;;;;;;48.00;40.25;30.90;98.50;;;;;;5039200;28;8765;-66
2022/04/01 07:57:26;;;;;;;;;49.50;40.25;30.90;98.80;;;;;;5038419;28;8802;-66
2022/04/01 07:59:53;;;;;;;;;49.00;40.25;30.90;98.80;;;;;;5038566;28;9863;-66
2022/04/01 08:02:20;;;;;;;;;44.75;38.25;31.00;98.60;;;;;;5038205;28;8780;-66
2022/04/01 08:04:46;;;;;;;;;45.25;39.00;31.00;98.70;;;;;;5054977;28;8751;-66
2022/04/01 08:07:13;;;;;;;;;46.00;37.75;31.00;98.70;;;;;;5040807;28;8777;-66
2022/04/01 08:09:40;;;;;;;;;47.25;39.25;31.00;98.90;;;;;;5058046;28;8758;-66
2022/04/01 08:12:08;;;;;;;;;47.25;40.00;31.10;98.00;;;;;;5058285;28;8731;-66
2022/04/01 08:14:37;;;;;;;;;43.75;38.00;31.10;97.80;;;;;;5058207;28;8765;-66
2022/04/01 08:17:05;;;;;;;;;48.25;41.25;31.10;98.10;;;;;;5058378;28;8741;-66
2022/04/01 08:19:32;;;;;;;;;48.75;40.00;31.20;98.50;;;;;;5058558;28;8725;-66
2022/04/01 08:21:59;;;;;;;;;45.25;38.25;31.20;98.10;;;;;;5038955;28;8748;-66
2022/04/01 08:24:26;;;;;;;;;47.75;38.50;31.30;97.80;;;;;;5020948;28;8721;-65
2022/04/01 08:26:53;;;;;;;;;44.75;37.00;31.50;97.30;;;;;;5038097;28;8760;-66
2022/04/01 08:29:19;;;;;;;;;47.75;38.50;31.60;96.90;;;;;;5052545;28;9028;-64
2022/04/01 08:31:46;;;;;;;;;46.00;39.00;31.70;97.00;;;;;;5030845;28;8724;-66
2022/04/01 08:34:13;;;;;;;;;48.25;39.25;31.80;96.90;;;;;;5062973;28;8792;-66
2022/04/01 08:36:39;;;;;;;;;43.25;36.25;31.80;96.00;;;;;;5057574;28;8803;-66
2022/04/01 08:39:06;;;;;;;;;50.75;42.75;31.80;96.20;;;;;;5057630;28;8785;-65
2022/04/01 08:41:33;;;;;;;;;49.50;39.50;32.10;95.40;;;;;;5020262;28;8810;-66
2022/04/01 08:43:59;;;;;;;;;50.50;40.25;31.90;94.80;;;;;;5036413;28;8752;-66
2022/04/01 08:46:26;;;;;;;;;46.25;39.75;31.80;95.10;;;;;;5037750;28;8733;-66
2022/04/01 08:48:54;;;;;;;;;45.00;35.25;31.90;94.40;;;;;;5028623;28;8764;-66
2022/04/01 08:51:21;;;;;;;;;45.50;37.50;31.80;93.90;;;;;;5017422;28;8909;-66
2022/04/01 08:53:47;;;;;;;;;43.50;37.00;31.90;94.30;;;;;;5017965;28;8789;-66
2022/04/01 08:56:15;;;;;;;;;45.50;37.50;31.80;94.70;;;;;;5017975;28;9341;-66
2022/04/01 08:58:41;;;;;;;;;44.75;37.00;31.90;94.80;;;;;;5017706;28;9380;-66
2022/04/01 09:01:08;;;;;;;;;39.50;34.25;32.00;93.10;;;;;;5018329;28;8771;-66
2022/04/01 09:03:36;;;;;;;;;45.25;35.75;32.10;93.10;;;;;;5024367;28;8757;-66
2022/04/01 09:06:04;;;;;;;;;46.00;38.75;32.10;93.00;;;;;;5037681;28;8760;-66
2022/04/01 09:08:38;;;;;;;;;29.50;27.50;32.10;93.10;;;;;;5037333;28;8760;-66
2022/04/01 09:11:25;;;;;;;;;44.75;36.25;32.30;91.90;;;;;;5036043;28;8760;-67
2022/04/01 09:13:52;;;;;;;;;41.00;32.75;32.20;92.10;;;;;;5037442;28;8790;-66
2022/04/01 09:16:33;;;;;;;;;37.25;32.75;32.20;91.80;;;;;;5037629;28;8792;-65
2022/04/01 09:19:04;;;;;;;;;43.00;36.00;32.10;91.90;;;;;;5026371;28;8747;-66
2022/04/01 09:21:32;;;;;;;;;39.50;35.50;32.10;92.40;;;;;;5017248;28;8793;-66
2022/04/01 09:23:59;;;;;;;;;40.50;35.75;32.10;92.40;;;;;;5017373;28;8813;-67
2022/04/01 09:26:32;;;;;;;;;42.25;36.75;32.20;91.80;;;;;;5015696;28;8767;-66
2022/04/01 09:28:59;;;;;;;;;46.75;37.75;32.30;92.00;;;;;;5017331;28;8787;-66
2022/04/01 09:31:30;;;;;;;;;42.75;34.25;32.30;92.20;;;;;;5017107;28;8787;-66
2022/04/01 09:33:57;;;;;;;;;36.75;33.50;32.10;92.60;;;;;;5010157;28;8768;-66
2022/04/01 09:36:29;;;;;;;;;39.00;35.00;32.10;92.90;;;;;;5036677;28;8919;-66
2022/04/01 09:39:07;;;;;;;;;41.25;34.25;32.30;91.70;;;;;;5036957;28;8899;-66
2022/04/01 09:41:46;;;;;;;;;44.00;35.50;32.20;91.10;;;;;;5025771;28;8954;-67
2022/04/01 09:44:18;;;;;;;;;41.00;33.00;32.10;91.60;;;;;;5037272;28;8775;-67
2022/04/01 09:46:46;;;;;;;;;43.75;33.50;32.10;91.50;;;;;;5035883;28;8824;-67
2022/04/01 09:49:14;;;;;;;;;43.00;35.00;32.10;92.00;;;;;;5023813;28;8758;-67
2022/04/01 09:51:46;;;;;;;;;29.50;27.00;32.10;92.50;;;;;;5017036;28;8759;-66
2022/04/01 09:54:13;;;;;;;;;44.50;36.00;32.20;92.60;;;;;;5016884;28;8763;-66
2022/04/01 09:56:44;;;;;;;;;44.00;37.25;32.10;92.70;;;;;;5015343;28;8775;-66
2022/04/01 09:59:16;;;;;;;;;46.25;37.00;32.20;93.50;;;;;;5038929;28;8988;-66
2022/04/01 10:01:43;;;;;;;;;37.75;34.25;32.00;94.00;;;;;;5017103;28;9388;-66
2022/04/01 10:04:13;;;;;;;;;38.00;32.50;31.90;94.90;;;;;;5027287;28;8761;-66
2022/04/01 10:06:40;;;;;;;;;42.25;34.75;31.70;94.60;;;;;;5018399;28;8792;-66
2022/04/01 10:09:11;;;;;;;;;36.75;30.00;31.70;94.40;;;;;;5036777;28;8764;-66
2022/04/01 10:11:40;;;;;;;;;42.25;35.75;31.70;94.80;;;;;;5036381;28;8783;-66
2022/04/01 10:14:12;;;;;;;;;38.25;33.25;31.50;94.50;;;;;;5035291;28;9078;-66
2022/04/01 10:16:42;;;;;;;;;41.00;35.00;31.50;95.00;;;;;;5035095;28;8854;-66
2022/04/01 10:19:14;;;;;;;;;35.00;32.25;31.40;95.20;;;;;;5024393;28;8783;-66
2022/04/01 10:21:45;;;;;;;;;43.25;35.50;31.40;95.40;;;;;;5016584;28;8771;-66
2022/04/01 10:24:19;;;;;;;;;37.75;34.25;31.40;95.10;;;;;;5016805;28;8799;-66
2022/04/01 10:26:59;;;;;;;;;41.75;35.75;31.40;94.90;;;;;;5016529;28;8771;-66
2022/04/01 10:29:26;;;;;;;;;42.50;36.50;31.40;95.40;;;;;;5033488;28;8778;-66
2022/04/01 10:31:54;;;;;;;;;43.25;34.50;31.40;95.00;;;;;;5002149;28;8759;-66
2022/04/01 10:34:24;;;;;;;;;41.50;35.25;31.40;95.70;;;;;;5015921;28;8859;-65
2022/04/01 10:37:00;;;;;;;;;39.75;35.00;31.40;95.30;;;;;;5039707;28;8772;-66
2022/04/01 10:39:28;;;;;;;;;40.25;35.25;31.40;95.50;;;;;;5038546;28;8760;-66
2022/04/01 10:42:12;;;;;;;;;32.25;29.50;31.40;95.60;;;;;;5057519;28;8790;-66
2022/04/01 10:44:45;;;;;;;;;44.75;37.75;31.30;95.50;;;;;;5060116;28;8766;-66
2022/04/01 10:47:12;;;;;;;;;43.50;36.50;31.30;95.60;;;;;;5060239;28;8786;-66
2022/04/01 10:52:23;;;;;;;;;41.00;35.50;31.10;95.90;;;;;;5040426;28;8756;-65
2022/04/01 10:55:03;;;;;;;;;45.00;36.25;31.10;95.90;;;;;;5039914;28;8770;-66
2022/04/01 10:57:31;;;;;;;;;44.50;38.25;31.10;95.90;;;;;;5039697;28;8757;-66
2022/04/01 11:00:04;;;;;;;;;46.75;37.50;31.10;96.00;;;;;;5038467;28;8830;-66
2022/04/01 11:02:30;;;;;;;;;41.00;35.00;31.10;96.10;;;;;;5039876;28;8753;-66
2022/04/01 11:05:00;;;;;;;;;48.75;39.00;31.10;96.10;;;;;;5039761;28;9395;-66
2022/04/01 11:07:27;;;;;;;;;43.00;36.25;31.00;96.30;;;;;;5059198;28;9801;-65
2022/04/01 11:09:55;;;;;;;;;39.25;35.00;31.10;96.30;;;;;;5059919;28;9372;-66
2022/04/01 11:12:25;;;;;;;;;48.75;40.00;31.00;96.40;;;;;;5059339;28;8874;-66
2022/04/01 11:14:55;;;;;;;;;47.00;36.25;31.00;96.30;;;;;;5041417;28;8793;-67
2022/04/01 11:17:27;;;;;;;;;44.75;37.50;31.00;96.50;;;;;;5059152;28;8751;-67
2022/04/01 11:20:12;;;;;;;;;19.50;19.50;30.90;96.40;;;;;;5041260;28;8768;-66
2022/04/01 11:23:03;;;;;;;;;46.75;40.00;30.90;96.60;;;;;;5021958;28;8773;-66
2022/04/01 11:25:32;;;;;;;;;46.50;38.50;30.90;96.60;;;;;;5039375;28;9028;-66
2022/04/01 11:28:05;;;;;;;;;45.00;38.00;30.80;96.60;;;;;;5039780;28;8776;-66
2022/04/01 11:30:41;;;;;;;;;32.25;26.75;30.80;96.60;;;;;;5038958;28;9413;-66
2022/04/01 11:33:16;;;;;;;;;43.50;36.75;30.80;96.60;;;;;;5042714;28;8900;-67
2022/04/01 11:35:53;;;;;;;;;47.00;37.00;30.70;96.70;;;;;;5059550;28;8770;-66
2022/04/01 11:38:22;;;;;;;;;50.50;40.00;30.70;96.80;;;;;;5058868;28;9460;-66
2022/04/01 11:40:50;;;;;;;;;47.75;38.50;30.70;96.70;;;;;;5058317;28;8743;-66
2022/04/01 11:43:18;;;;;;;;;43.50;37.25;30.60;97.20;;;;;;5040717;28;8808;-64
2022/04/01 11:45:46;;;;;;;;;49.75;39.75;30.60;97.70;;;;;;5058728;28;8811;-66
2022/04/01 11:48:33;;;;;;;;;41.50;35.75;30.50;97.20;;;;;;5054874;28;8761;-66
2022/04/01 11:51:02;;;;;;;;;46.00;38.50;30.50;97.40;;;;;;5039492;28;8797;-66
2022/04/01 11:53:30;;;;;;;;;47.00;38.50;30.50;97.50;;;;;;5038375;28;8883;-66
2022/04/01 11:55:57;;;;;;;;;45.00;38.00;30.40;97.40;;;;;;5038754;28;8793;-66
2022/04/01 11:58:24;;;;;;;;;43.25;36.25;30.50;97.10;;;;;;5038920;28;8745;-65
2022/04/01 12:00:51;;;;;;;;;43.50;35.75;30.50;97.10;;;;;;5038372;28;8838;-66
2022/04/01 12:03:20;;;;;;;;;45.50;39.50;30.50;97.40;;;;;;5057919;28;8897;-65
2022/04/01 12:05:53;;;;;;;;;47.50;38.75;30.40;97.60;;;;;;5040699;28;8781;-66
2022/04/01 12:11:07;;;;;;;;;48.50;40.25;30.30;98.50;;;;;;5058569;28;8758;-66
2022/04/01 12:13:34;;;;;;;;;52.50;42.00;30.30;99.90;;;;;;5058010;28;8730;-66
2022/04/01 12:16:00;;;;;;;;;49.25;41.50;30.30;99.70;;;;;;5058757;28;8790;-66
2022/04/01 12:18:29;;;;;;;;;50.50;42.25;30.30;99.40;;;;;;5052194;28;9087;-65
2022/04/01 12:21:00;;;;;;;;;39.25;35.00;30.20;99.90;;;;;;5038115;28;8779;-66
2022/04/01 12:23:32;;;;;;;;;48.25;39.25;30.20;99.00;;;;;;5037662;28;8764;-66
2022/04/01 12:25:59;;;;;;;;;43.50;37.25;30.10;97.70;;;;;;5037902;28;8797;-66
2022/04/01 12:28:40;;;;;;;;;44.75;37.75;30.00;97.30;;;;;;5037867;28;8749;-66
2022/04/01 12:31:19;;;;;;;;;50.75;39.75;30.20;97.30;;;;;;5039175;28;8900;-66
2022/04/01 12:33:47;;;;;;;;;47.50;40.50;30.30;98.70;;;;;;5030450;28;8782;-66
2022/04/01 12:36:14;;;;;;;;;52.00;43.75;30.20;99.50;;;;;;5040161;28;8778;-66
2022/04/01 12:38:42;;;;;;;;;48.50;40.50;30.10;99.50;;;;;;5073129;28;9443;-66
2022/04/01 12:41:16;;;;;;;;;55.25;45.25;30.10;99.80;;;;;;5057596;28;8751;-66
2022/04/01 12:43:47;;;;;;;;;50.25;40.75;30.00;99.90;;;;;;5057499;28;8923;-67
2022/04/01 12:46:29;;;;;;;;;50.00;39.25;30.00;99.90;;;;;;5058192;28;8751;-66
2022/04/01 12:48:57;;;;;;;;;52.50;42.25;30.00;99.40;;;;;;5031031;28;8749;-66
2022/04/01 12:51:30;;;;;;;;;49.75;39.50;30.00;99.10;;;;;;5037139;28;8837;-66
2022/04/01 12:54:02;;;;;;;;;45.00;38.25;29.90;99.40;;;;;;5037732;28;8757;-66
2022/04/01 12:56:36;;;;;;;;;48.75;42.00;29.90;99.00;;;;;;5037233;28;8834;-66
2022/04/01 12:59:10;;;;;;;;;49.00;40.00;30.00;99.20;;;;;;5020945;28;8859;-66